createdAt,value
2018-06-28T00:00:49.694Z,19.30
2018-06-28T00:03:18.730Z,19.10
2018-06-28T00:05:47.917Z,19.40
2018-06-28T00:08:16.866Z,19.20
2018-06-28T00:13:13.572Z,18.90
2018-06-28T00:15:44.692Z,18.90
2018-06-28T00:18:14.765Z,18.80
2018-06-28T00:20:44.637Z,18.80
2018-06-28T00:23:14.098Z,18.80
2018-06-28T00:26:01.013Z,18.70
2018-06-28T00:31:03.969Z,18.60
2018-06-28T00:33:32.401Z,18.60
2018-06-28T00:36:01.211Z,18.50
2018-06-28T00:38:29.987Z,18.60
2018-06-28T00:41:05.695Z,18.40
2018-06-28T00:43:32.382Z,18.40
2018-06-28T00:46:02.427Z,18.40
2018-06-28T00:48:30.906Z,18.30
2018-06-28T00:51:04.496Z,18.20
2018-06-28T00:53:33.100Z,18.50
2018-06-28T00:56:01.913Z,18.40
2018-06-28T00:58:32.033Z,18.30
2018-06-28T01:01:00.551Z,18.20
2018-06-28T01:08:28.483Z,18.10
2018-06-28T01:10:57.797Z,18.10
2018-06-28T01:13:26.129Z,18.10
2018-06-28T01:15:54.455Z,18.00
2018-06-28T01:20:52.156Z,17.90
2018-06-28T01:23:21.519Z,17.80
2018-06-28T01:25:49.964Z,18.10
2018-06-28T01:28:19.774Z,18.20
2018-06-28T01:30:48.219Z,18.00
2018-06-28T01:33:16.579Z,17.90
2018-06-28T01:35:44.960Z,17.70
2018-06-28T01:38:16.727Z,17.60
2018-06-28T01:40:43.245Z,17.90
2018-06-28T01:43:46.878Z,18.10
2018-06-28T01:48:44.282Z,17.80
2018-06-28T01:58:38.297Z,17.40
2018-06-28T02:01:08.216Z,17.40
2018-06-28T02:03:37.745Z,17.40
2018-06-28T02:06:07.111Z,17.40
2018-06-28T02:11:03.509Z,17.30
2018-06-28T02:13:31.870Z,17.20
2018-06-28T02:16:00.280Z,17.20
2018-06-28T02:18:29.567Z,17.20
2018-06-28T02:20:57.900Z,17.20
2018-06-28T02:23:26.223Z,17.50
2018-06-28T02:25:55.908Z,17.60
2018-06-28T02:28:24.326Z,17.70
2018-06-28T02:30:52.788Z,17.40
2018-06-28T02:35:50.464Z,17.20
2018-06-28T02:38:18.822Z,17.10
2018-06-28T02:40:47.125Z,17.00
2018-06-28T02:45:44.968Z,17.00
2018-06-28T02:53:09.491Z,16.80
2018-06-28T02:55:39.113Z,16.80
2018-06-28T02:58:08.287Z,16.80
2018-06-28T03:00:36.583Z,16.80
2018-06-28T03:08:02.447Z,16.70
2018-06-28T03:15:28.318Z,16.70
2018-06-28T03:17:56.663Z,16.60
2018-06-28T03:22:53.206Z,16.60
2018-06-28T03:25:21.550Z,16.60
2018-06-28T03:27:49.880Z,16.50
2018-06-28T03:30:19.637Z,16.50
2018-06-28T03:32:49.120Z,16.50
2018-06-28T03:35:17.544Z,16.40
2018-06-28T03:37:45.951Z,16.40
2018-06-28T03:40:14.205Z,16.40
2018-06-28T03:42:42.605Z,16.50
2018-06-28T03:45:11.057Z,16.50
2018-06-28T03:47:40.545Z,16.50
2018-06-28T03:50:08.905Z,16.60
2018-06-28T03:52:37.564Z,16.90
2018-06-28T03:57:34.056Z,16.70
2018-06-28T04:00:02.340Z,16.60
2018-06-28T04:02:30.682Z,16.60
2018-06-28T04:05:00.546Z,16.50
2018-06-28T04:07:30.844Z,16.50
2018-06-28T04:09:59.198Z,16.40
2018-06-28T04:12:28.714Z,16.50
2018-06-28T04:14:57.133Z,16.50
2018-06-28T04:17:25.490Z,16.50
2018-06-28T04:19:53.825Z,16.50
2018-06-28T04:27:29.811Z,16.60
2018-06-28T04:29:58.647Z,16.60
2018-06-28T04:32:28.512Z,16.90
2018-06-28T04:37:26.479Z,16.70
2018-06-28T04:39:55.115Z,16.70
2018-06-28T04:42:23.444Z,16.70
2018-06-28T04:44:53.265Z,16.70
2018-06-28T04:47:24.070Z,16.70
2018-06-28T04:49:58.407Z,17.10
2018-06-28T04:52:27.457Z,16.90
2018-06-28T05:00:48.375Z,16.90
2018-06-28T05:09:49.058Z,16.90
2018-06-28T05:12:16.312Z,17.30
2018-06-28T05:17:15.588Z,17.10
2018-06-28T05:19:48.150Z,17.10
2018-06-28T05:22:18.869Z,17.10
2018-06-28T05:24:47.170Z,17.10
2018-06-28T05:27:15.655Z,17.10
2018-06-28T05:29:44.743Z,17.20
2018-06-28T05:32:13.478Z,17.20
2018-06-28T05:37:12.502Z,17.20
2018-06-28T05:42:08.944Z,17.60
2018-06-28T05:47:08.213Z,17.40
2018-06-28T05:52:07.403Z,17.40
2018-06-28T05:59:36.477Z,17.50
2018-06-28T06:02:04.815Z,17.50
2018-06-28T06:04:34.662Z,17.90
2018-06-28T06:07:05.791Z,17.80
2018-06-28T06:09:34.134Z,17.70
2018-06-28T06:16:58.678Z,17.80
2018-06-28T06:19:27.030Z,17.90
2018-06-28T06:21:55.446Z,17.90
2018-06-28T06:26:53.338Z,17.90
2018-06-28T06:29:21.723Z,18.30
2018-06-28T06:31:51.252Z,18.20
2018-06-28T06:34:22.330Z,18.10
2018-06-28T06:36:52.848Z,18.10
2018-06-28T06:39:21.006Z,18.10
2018-06-28T06:41:50.353Z,18.10
2018-06-28T06:44:19.581Z,18.20
2018-06-28T06:46:48.229Z,18.20
2018-06-28T06:49:16.658Z,18.30
2018-06-28T06:51:44.952Z,18.30
2018-06-28T06:54:13.335Z,18.40
2018-06-28T06:56:41.693Z,18.40
2018-06-28T06:59:10.016Z,18.40
2018-06-28T07:01:39.512Z,18.50
2018-06-28T07:04:07.972Z,18.50
2018-06-28T07:06:36.286Z,18.90
2018-06-28T07:09:07.748Z,19.10
2018-06-28T07:11:36.113Z,18.80
2018-06-28T07:14:04.487Z,19.10
2018-06-28T07:16:32.866Z,19.00
2018-06-28T07:19:02.219Z,18.90
2018-06-28T07:21:37.534Z,18.80
2018-06-28T07:26:34.046Z,18.80
2018-06-28T07:29:02.413Z,18.90
2018-06-28T07:31:30.797Z,18.90
2018-06-28T07:33:59.210Z,19.00
2018-06-28T07:36:27.565Z,19.00
2018-06-28T07:38:55.953Z,19.00
2018-06-28T07:41:24.493Z,19.10
2018-06-28T07:43:52.828Z,19.10
2018-06-28T07:46:21.141Z,19.50
2018-06-28T07:48:49.602Z,19.40
2018-06-28T07:53:46.059Z,19.30
2018-06-28T07:56:14.407Z,19.30
2018-06-28T07:58:42.764Z,19.70
2018-06-28T08:01:11.094Z,19.60
2018-06-28T08:08:35.780Z,19.60
2018-06-28T08:11:04.160Z,19.60
2018-06-28T08:13:32.543Z,19.70
2018-06-28T08:16:00.901Z,19.70
2018-06-28T08:18:29.268Z,19.80
2018-06-28T08:20:57.636Z,19.80
2018-06-28T08:23:25.903Z,19.80
2018-06-28T08:25:54.256Z,19.90
2018-06-28T08:28:22.626Z,19.90
2018-06-28T08:30:50.981Z,20.00
2018-06-28T08:33:19.377Z,20.00
2018-06-28T08:35:47.769Z,20.10
2018-06-28T08:38:16.237Z,20.10
2018-06-28T08:40:44.584Z,20.20
2018-06-28T08:43:12.954Z,20.20
2018-06-28T08:48:09.735Z,20.30
2018-06-28T08:50:38.472Z,20.30
2018-06-28T08:55:35.526Z,20.40
2018-06-28T09:00:31.985Z,20.90
2018-06-28T09:05:28.396Z,20.70
2018-06-28T09:07:56.876Z,20.70
2018-06-28T09:10:27.494Z,20.70
2018-06-28T09:17:56.951Z,20.90
2018-06-28T09:22:59.866Z,20.90
2018-06-28T09:25:31.449Z,21.00
2018-06-28T09:30:33.391Z,21.10
2018-06-28T09:33:03.560Z,21.10
2018-06-28T09:38:04.634Z,21.20
2018-06-28T09:40:35.782Z,21.30
2018-06-28T09:43:06.511Z,21.40
2018-06-28T09:45:36.857Z,21.40
2018-06-28T09:48:10.050Z,21.40
2018-06-28T09:50:42.954Z,21.80
2018-06-28T09:53:14.416Z,22.00
2018-06-28T09:55:46.942Z,21.80
2018-06-28T09:58:17.325Z,22.10
2018-06-28T10:00:48.332Z,21.90
2018-06-28T10:13:12.481Z,22.00
2018-06-28T10:15:40.862Z,21.90
2018-06-28T10:20:37.207Z,22.00
2018-06-28T10:23:05.592Z,22.00
2018-06-28T10:25:34.006Z,22.10
2018-06-28T10:28:02.367Z,22.20
2018-06-28T10:30:30.762Z,22.60
2018-06-28T10:32:59.136Z,22.50
2018-06-28T10:35:27.485Z,22.90
2018-06-28T10:37:55.951Z,23.20
2018-06-28T10:40:24.344Z,23.40
2018-06-28T10:42:52.760Z,23.20
2018-06-28T10:45:21.179Z,23.20
2018-06-28T10:47:49.983Z,23.20
2018-06-28T10:50:18.300Z,23.20
2018-06-28T10:52:46.682Z,23.30
2018-06-28T10:55:15.029Z,23.40
2018-06-28T10:57:43.355Z,23.80
2018-06-28T11:02:39.785Z,24.30
2018-06-28T11:05:08.215Z,24.20
2018-06-28T11:12:32.760Z,24.60
2018-06-28T11:15:01.243Z,24.40
2018-06-28T11:17:29.568Z,24.30
2018-06-28T11:19:57.929Z,24.30
2018-06-28T11:22:26.410Z,24.30
2018-06-28T11:24:55.732Z,24.60
2018-06-28T11:27:24.097Z,24.80
2018-06-28T11:29:52.470Z,24.90
2018-06-28T11:32:20.857Z,24.50
2018-06-28T11:37:17.422Z,24.30
2018-06-28T11:49:38.239Z,24.20
2018-06-28T11:52:06.723Z,24.20
2018-06-28T11:57:03.027Z,24.30
2018-06-28T12:01:59.525Z,24.50
2018-06-28T12:04:27.854Z,24.70
2018-06-28T12:09:24.335Z,24.90
2018-06-28T12:11:52.681Z,25.00
2018-06-28T12:16:49.145Z,24.90
2018-06-28T12:21:45.594Z,25.00
2018-06-28T12:29:10.162Z,25.30
2018-06-28T12:31:38.501Z,25.50
2018-06-28T12:34:06.858Z,26.40
2018-06-28T12:36:35.224Z,27.10
2018-06-28T12:39:04.359Z,30.80
2018-06-28T12:44:00.792Z,36.50
2018-06-28T12:47:23.189Z,38.00
2018-06-28T12:49:51.538Z,39.00
2018-06-28T12:53:07.896Z,40.10
2018-06-28T12:56:15.384Z,40.90
2018-06-28T12:58:45.661Z,41.40
2018-06-28T13:01:13.976Z,41.90
2018-06-28T13:03:42.381Z,42.40
2018-06-28T13:06:10.724Z,43.10
2018-06-28T13:08:39.088Z,43.80
2018-06-28T13:13:35.629Z,44.10
2018-06-28T13:16:03.884Z,44.30
2018-06-28T13:21:00.388Z,45.30
2018-06-28T13:23:28.710Z,46.00
2018-06-28T13:25:57.111Z,46.40
2018-06-28T13:30:56.644Z,47.60
2018-06-28T13:33:24.990Z,48.30
2018-06-28T13:35:53.402Z,48.60
2018-06-28T13:38:21.762Z,49.20
2018-06-28T13:43:19.585Z,48.30
2018-06-28T13:45:48.005Z,48.50
2018-06-28T13:48:16.460Z,48.70
2018-06-28T13:50:44.806Z,48.70
2018-06-28T13:53:13.109Z,50.30
2018-06-28T13:55:41.496Z,48.90
2018-06-28T13:58:09.848Z,47.80
2018-06-28T14:05:34.344Z,48.70
2018-06-28T14:10:30.996Z,50.20
2018-06-28T14:15:27.469Z,50.60
2018-06-28T14:20:25.387Z,50.80
2018-06-28T14:25:21.783Z,51.10
2018-06-28T14:35:16.097Z,51.80
2018-06-28T14:37:44.492Z,51.40
2018-06-28T14:42:41.866Z,52.90
2018-06-28T14:47:38.434Z,51.80
2018-06-28T14:52:34.977Z,51.60
2018-06-28T14:55:03.392Z,51.50
2018-06-28T14:57:31.724Z,51.40
2018-06-28T15:00:00.966Z,51.60
2018-06-28T15:02:29.420Z,51.40
2018-06-28T15:04:58.910Z,51.30
2018-06-28T15:09:55.488Z,53.00
2018-06-28T15:17:21.900Z,52.70
2018-06-28T15:19:50.248Z,51.40
2018-06-28T15:22:18.583Z,51.00
2018-06-28T15:24:48.440Z,52.00
2018-06-28T15:27:16.807Z,51.20
2018-06-28T15:29:45.157Z,50.30
2018-06-28T15:32:14.904Z,50.20
2018-06-28T15:34:43.227Z,50.10
2018-06-28T15:37:11.626Z,50.10
2018-06-28T15:39:40.026Z,50.10
2018-06-28T15:44:36.497Z,49.80
2018-06-28T15:47:04.871Z,49.50
2018-06-28T15:49:33.203Z,49.10
2018-06-28T15:52:01.519Z,48.80
2018-06-28T15:56:57.961Z,47.30
2018-06-28T15:59:27.126Z,46.50
2018-06-28T16:01:55.613Z,46.00
2018-06-28T16:04:23.931Z,45.80
2018-06-28T16:06:52.278Z,46.80
2018-06-28T16:09:20.643Z,46.40
2018-06-28T16:11:49.000Z,46.50
2018-06-28T16:14:17.416Z,46.70
2018-06-28T16:16:45.809Z,47.00
2018-06-28T16:19:14.145Z,47.30
2018-06-28T16:21:43.894Z,47.40
2018-06-28T16:26:40.396Z,47.10
2018-06-28T16:29:08.748Z,46.80
2018-06-28T16:31:37.137Z,46.70
2018-06-28T16:34:05.623Z,46.30
2018-06-28T16:36:34.000Z,46.00
2018-06-28T16:39:02.438Z,45.90
2018-06-28T16:41:30.779Z,45.80
2018-06-28T16:43:59.182Z,45.40
2018-06-28T16:46:28.479Z,45.40
2018-06-28T16:48:57.256Z,45.50
2018-06-28T16:51:27.053Z,46.00
2018-06-28T16:56:23.465Z,45.20
2018-06-28T17:06:16.141Z,43.60
2018-06-28T17:08:44.592Z,43.40
2018-06-28T17:11:12.930Z,43.10
2018-06-28T17:13:43.938Z,43.10
2018-06-28T17:16:12.320Z,43.00
2018-06-28T17:18:42.016Z,42.70
2018-06-28T17:21:10.378Z,43.10
2018-06-28T17:23:38.796Z,42.80
2018-06-28T17:26:07.173Z,42.80
2018-06-28T17:28:40.917Z,42.10
2018-06-28T17:31:11.376Z,41.50
2018-06-28T17:33:39.907Z,41.10
2018-06-28T17:38:36.794Z,40.70
2018-06-28T17:41:07.541Z,40.50
2018-06-28T17:43:35.918Z,40.30
2018-06-28T17:46:04.320Z,40.10
2018-06-28T17:48:32.707Z,39.80
2018-06-28T17:51:01.143Z,39.60
2018-06-28T17:53:29.701Z,39.30
2018-06-28T17:55:58.113Z,39.10
2018-06-28T17:58:26.478Z,39.60
2018-06-28T18:00:54.905Z,39.00
2018-06-28T18:03:23.324Z,38.60
2018-06-28T18:05:51.756Z,38.30
2018-06-28T18:08:20.060Z,38.50
2018-06-28T18:10:48.865Z,38.20
2018-06-28T18:15:45.345Z,37.50
2018-06-28T18:18:17.060Z,37.20
2018-06-28T18:20:45.506Z,37.20
2018-06-28T18:23:13.880Z,36.90
2018-06-28T18:25:42.299Z,36.90
2018-06-28T18:28:10.638Z,36.50
2018-06-28T18:30:39.030Z,36.10
2018-06-28T18:33:07.353Z,35.80
2018-06-28T18:38:04.117Z,35.40
2018-06-28T18:40:32.445Z,35.10
2018-06-28T18:43:00.825Z,34.90
2018-06-28T18:45:29.305Z,35.30
2018-06-28T18:47:57.656Z,35.00
2018-06-28T18:50:26.020Z,34.70
2018-06-28T18:52:54.435Z,34.60
2018-06-28T18:55:22.781Z,34.10
2018-06-28T18:57:51.213Z,33.70
2018-06-28T19:00:21.727Z,33.30
2018-06-28T19:02:50.063Z,33.00
2018-06-28T19:10:32.103Z,32.10
2018-06-28T19:13:00.633Z,31.80
2018-06-28T19:15:46.809Z,31.60
2018-06-28T19:18:15.480Z,31.40
2018-06-28T19:21:03.201Z,31.50
2018-06-28T19:23:51.169Z,31.30
2018-06-28T19:26:20.320Z,31.00
2018-06-28T19:28:49.271Z,30.70
2018-06-28T19:31:38.573Z,30.30
2018-06-28T19:34:09.354Z,30.00
2018-06-28T19:39:28.089Z,29.70
2018-06-28T19:44:44.817Z,29.30
2018-06-28T19:49:59.263Z,29.30
2018-06-28T19:52:45.379Z,29.20
2018-06-28T19:55:16.644Z,28.90
2018-06-28T20:00:33.436Z,28.70
2018-06-28T20:03:19.705Z,28.70
2018-06-28T20:05:50.456Z,28.40
2018-06-28T20:08:19.057Z,28.10
2018-06-28T20:10:47.605Z,27.90
2018-06-28T20:13:34.360Z,27.70
2018-06-28T20:16:35.661Z,27.40
2018-06-28T20:19:22.218Z,27.50
2018-06-28T20:21:50.588Z,27.40
2018-06-28T20:24:18.985Z,27.30
2018-06-28T20:27:05.075Z,27.10
2018-06-28T20:35:05.637Z,26.80
2018-06-28T20:37:34.317Z,26.30
2018-06-28T20:40:04.630Z,26.20
2018-06-28T20:42:33.859Z,26.00
2018-06-28T20:45:02.688Z,26.00
2018-06-28T20:52:30.726Z,25.60
2018-06-28T20:54:59.255Z,25.40
2018-06-28T20:57:27.682Z,25.60
2018-06-28T20:59:56.047Z,25.40
2018-06-28T21:02:24.407Z,25.30
2018-06-28T21:04:52.817Z,25.40
2018-06-28T21:07:21.396Z,25.20
2018-06-28T21:09:49.959Z,24.90
2018-06-28T21:12:18.379Z,25.00
2018-06-28T21:14:46.726Z,25.10
2018-06-28T21:17:15.240Z,24.80
2018-06-28T21:19:43.888Z,24.60
2018-06-28T21:22:12.403Z,24.40
2018-06-28T21:24:40.770Z,24.20
2018-06-28T21:27:09.225Z,24.20
2018-06-28T21:29:37.649Z,24.00
2018-06-28T21:32:06.289Z,23.90
2018-06-28T21:34:34.838Z,23.90
2018-06-28T21:39:31.453Z,23.70
2018-06-28T21:41:59.967Z,23.60
2018-06-28T21:46:56.664Z,23.50
2018-06-28T21:49:25.055Z,23.20
2018-06-28T21:51:53.423Z,23.10
2018-06-28T21:54:23.243Z,23.00
2018-06-28T21:56:51.624Z,22.80
2018-06-28T21:59:19.979Z,22.70
2018-06-28T22:01:55.102Z,22.70
2018-06-28T22:04:23.436Z,22.60
2018-06-28T22:06:51.795Z,22.50
2018-06-28T22:09:20.668Z,22.80
2018-06-28T22:11:50.434Z,22.60
2018-06-28T22:14:18.884Z,22.50
2018-06-28T22:19:16.684Z,22.50
2018-06-28T22:21:46.434Z,22.20
2018-06-28T22:24:14.789Z,22.10
2018-06-28T22:26:43.207Z,22.00
2018-06-28T22:29:11.549Z,21.80
2018-06-28T22:31:40.010Z,22.20
2018-06-28T22:34:08.417Z,21.90
2018-06-28T22:36:36.754Z,22.10
2018-06-28T22:39:07.721Z,21.90
2018-06-28T22:41:36.071Z,22.00
2018-06-28T22:44:04.685Z,21.80
2018-06-28T22:46:33.180Z,21.60
2018-06-28T22:49:01.538Z,21.40
2018-06-28T22:51:29.874Z,21.40
2018-06-28T22:53:58.305Z,21.30
2018-06-28T22:56:26.680Z,21.20
2018-06-28T22:58:55.120Z,21.20
2018-06-28T23:03:51.618Z,21.00
2018-06-28T23:06:19.993Z,21.00
2018-06-28T23:08:49.746Z,21.30
2018-06-28T23:11:18.072Z,21.40
2018-06-28T23:13:46.407Z,21.10
2018-06-28T23:16:14.762Z,20.90
2018-06-28T23:23:39.249Z,20.80
2018-06-28T23:26:07.605Z,20.70
2018-06-28T23:28:35.901Z,20.70
2018-06-28T23:31:04.329Z,20.50
2018-06-28T23:33:32.659Z,20.50
2018-06-28T23:36:01.007Z,20.40
2018-06-28T23:38:29.374Z,20.70
2018-06-28T23:40:57.745Z,20.80
2018-06-28T23:45:55.120Z,20.70
2018-06-28T23:48:23.423Z,20.40
2018-06-28T23:50:52.933Z,20.50
2018-06-28T23:53:21.320Z,20.30
2018-06-28T23:55:49.646Z,20.10
2018-06-28T23:58:18.016Z,20.10
